createdAt,value
2023-05-19T13:41:47.713Z,17.44
2023-05-19T13:44:15.917Z,16.80
2023-05-19T13:46:45.142Z,16.40
2023-05-19T13:49:13.053Z,16.20
2023-05-19T13:51:42.343Z,15.90
2023-05-19T13:54:09.442Z,15.80
2023-05-19T13:56:36.997Z,15.70
2023-05-19T13:59:04.323Z,15.80
2023-05-19T14:01:31.835Z,15.90
2023-05-19T14:03:58.622Z,16.00
2023-05-19T14:06:25.520Z,16.00
2023-05-19T14:08:52.420Z,16.00
2023-05-19T14:11:20.890Z,16.04
2023-05-19T14:13:52.510Z,16.10
2023-05-19T14:16:21.278Z,16.32
2023-05-19T14:18:48.556Z,16.60
2023-05-19T14:21:15.259Z,16.80
2023-05-19T14:23:42.174Z,17.00
2023-05-19T14:26:08.805Z,17.18
2023-05-19T14:28:35.402Z,17.40
2023-05-19T14:31:02.191Z,17.50
2023-05-19T14:33:32.779Z,17.60
2023-05-19T14:36:01.608Z,17.70
2023-05-19T14:38:29.412Z,17.80
2023-05-19T14:40:56.499Z,17.90
2023-05-19T14:43:23.214Z,18.00
2023-05-19T14:45:49.759Z,18.10
2023-05-19T14:48:16.679Z,18.20
2023-05-19T14:50:43.635Z,18.30
2023-05-19T14:53:10.355Z,18.40
2023-05-19T14:55:37.128Z,18.60
2023-05-19T14:58:07.891Z,18.80
2023-05-19T15:00:43.321Z,18.98
2023-05-19T15:03:11.207Z,19.00
2023-05-19T15:05:39.686Z,19.10
2023-05-19T15:08:06.490Z,19.10
2023-05-19T15:10:33.382Z,19.20
2023-05-19T15:13:01.115Z,19.32
2023-05-19T15:15:27.644Z,19.40
2023-05-19T15:17:54.362Z,19.50
2023-05-19T15:20:21.275Z,19.60
2023-05-19T15:22:48.208Z,19.70
2023-05-19T15:25:14.831Z,19.74
2023-05-19T15:27:41.394Z,19.76
2023-05-19T15:30:08.242Z,19.70
2023-05-19T15:32:35.030Z,19.70
2023-05-19T15:35:01.821Z,19.70
2023-05-19T15:37:28.916Z,19.62
2023-05-19T15:39:55.510Z,19.50
2023-05-19T15:42:22.010Z,19.50
2023-05-19T15:44:48.518Z,19.60
2023-05-19T15:47:15.294Z,19.70
2023-05-19T15:49:42.026Z,19.80
2023-05-19T15:52:09.070Z,19.84
2023-05-19T15:54:35.809Z,19.90
2023-05-19T15:57:02.657Z,19.90
2023-05-19T15:59:29.394Z,19.90
2023-05-19T16:01:56.247Z,19.90
2023-05-19T16:04:22.941Z,19.90
2023-05-19T16:06:50.058Z,19.80
2023-05-19T16:09:16.742Z,19.70
2023-05-19T16:11:43.472Z,19.66
2023-05-19T16:14:10.029Z,19.50
2023-05-19T16:16:36.704Z,19.50
2023-05-19T16:19:03.518Z,19.42
2023-05-19T16:21:31.510Z,19.34
2023-05-19T16:23:58.276Z,19.20
2023-05-19T16:26:25.709Z,19.10
2023-05-19T16:28:52.273Z,19.10
2023-05-19T16:31:19.123Z,19.00
2023-05-19T16:33:46.104Z,18.90
2023-05-19T16:36:12.951Z,18.90
2023-05-19T16:38:39.396Z,18.90
2023-05-19T16:41:06.635Z,18.90
